BEL5VA LIEO-EBBR
Flight info
| Callsign | BEL5VA |
|---|---|
| Flight time | N/A |
| Altitude | 38000 |
| Route | OLBEK6K/05 OLBEK DCT ERTEV DCT PUNSA DCT DEVDI DCT SUTAL N852 LNO |
| Aircraft | A319/M-DE3FGIJ1LORVWY/H |
Departure
| Time | 2026-04-28 19:34 |
|---|---|
| Airport | Olbia Costa Smeralda Airport (LIEO) |
Arrival
| Time | N/A |
|---|---|
| Airport | Brussels Airport (EBBR) |
| Time | Latitude | Longitude | Altitude | Speed | Heading |
|---|---|---|---|---|---|
| 2026-04-28 19:04 | 40.90180 | 9.51528 | 34 ft | 0 kts | 325° |
| 2026-04-28 19:26 | 40.90179 | 9.51529 | 34 ft | 2 kts | 325° |
| 2026-04-28 19:27 | 40.90159 | 9.51551 | 32 ft | 4 kts | 309° |
| 2026-04-28 19:27 | 40.90146 | 9.51580 | 32 ft | 4 kts | 284° |
| 2026-04-28 19:27 | 40.90145 | 9.51613 | 32 ft | 4 kts | 244° |
| 2026-04-28 19:27 | 40.90148 | 9.51622 | 33 ft | 0 kts | 236° |
| 2026-04-28 19:29 | 40.90145 | 9.51616 | 32 ft | 3 kts | 236° |
| 2026-04-28 19:30 | 40.90127 | 9.51580 | 33 ft | 7 kts | 236° |
| 2026-04-28 19:30 | 40.90090 | 9.51508 | 34 ft | 12 kts | 235° |
| 2026-04-28 19:30 | 40.90006 | 9.51518 | 34 ft | 16 kts | 153° |
| 2026-04-28 19:30 | 40.89915 | 9.51464 | 34 ft | 16 kts | 233° |
| 2026-04-28 19:31 | 40.89849 | 9.51340 | 34 ft | 15 kts | 235° |
| 2026-04-28 19:31 | 40.89788 | 9.51221 | 34 ft | 16 kts | 236° |
| 2026-04-28 19:31 | 40.89722 | 9.51097 | 34 ft | 17 kts | 234° |
| 2026-04-28 19:31 | 40.89655 | 9.50969 | 34 ft | 17 kts | 235° |
| 2026-04-28 19:32 | 40.89585 | 9.50838 | 34 ft | 18 kts | 236° |
| 2026-04-28 19:32 | 40.89514 | 9.50702 | 34 ft | 18 kts | 235° |
| 2026-04-28 19:32 | 40.89441 | 9.50562 | 34 ft | 19 kts | 234° |
| 2026-04-28 19:32 | 40.89351 | 9.50444 | 34 ft | 19 kts | 195° |
| 2026-04-28 19:33 | 40.89273 | 9.50544 | 34 ft | 18 kts | 102° |
| 2026-04-28 19:33 | 40.89266 | 9.50615 | 35 ft | 0 kts | 56° |
| 2026-04-28 19:33 | 40.89312 | 9.50704 | 34 ft | 45 kts | 56° |
| 2026-04-28 19:34 | 40.89644 | 9.51335 | 35 ft | 119 kts | 56° |
| 2026-04-28 19:34 | 40.90209 | 9.52415 | 265 ft | 150 kts | 57° |
| 2026-04-28 19:34 | 40.90792 | 9.53532 | 955 ft | 147 kts | 57° |
| 2026-04-28 19:34 | 40.91177 | 9.54259 | 1341 ft | 147 kts | 60° |
| 2026-04-28 19:35 | 40.91768 | 9.55371 | 1890 ft | 149 kts | 58° |
| 2026-04-28 19:35 | 40.92565 | 9.56873 | 2595 ft | 153 kts | 59° |
| 2026-04-28 19:35 | 40.93178 | 9.58029 | 3145 ft | 155 kts | 60° |
| 2026-04-28 19:35 | 40.93824 | 9.59252 | 3509 ft | 173 kts | 59° |
| 2026-04-28 19:36 | 40.94556 | 9.60645 | 3829 ft | 196 kts | 58° |
| 2026-04-28 19:36 | 40.95386 | 9.62217 | 4130 ft | 221 kts | 57° |
| 2026-04-28 19:36 | 40.96004 | 9.63383 | 4410 ft | 238 kts | 57° |
| 2026-04-28 19:36 | 40.96989 | 9.65233 | 5073 ft | 251 kts | 56° |
| 2026-04-28 19:37 | 40.98030 | 9.67093 | 5948 ft | 256 kts | 50° |
| 2026-04-28 19:37 | 40.98909 | 9.68180 | 6515 ft | 262 kts | 38° |
| 2026-04-28 19:37 | 41.01157 | 9.69810 | 7282 ft | 287 kts | 25° |
| 2026-04-28 19:37 | 41.02961 | 9.70923 | 8112 ft | 292 kts | 25° |
| 2026-04-28 19:38 | 41.04818 | 9.72075 | 8994 ft | 298 kts | 24° |
| 2026-04-28 19:38 | 41.06711 | 9.73259 | 9871 ft | 303 kts | 24° |
| 2026-04-28 19:38 | 41.08651 | 9.74477 | 10455 ft | 318 kts | 24° |
| 2026-04-28 19:38 | 41.10728 | 9.75785 | 10775 ft | 341 kts | 24° |
| 2026-04-28 19:39 | 41.12911 | 9.77161 | 11382 ft | 351 kts | 24° |
| 2026-04-28 19:39 | 41.15129 | 9.78561 | 12181 ft | 355 kts | 24° |
| 2026-04-28 19:39 | 41.17378 | 9.79985 | 12927 ft | 360 kts | 24° |
| 2026-04-28 19:39 | 41.19645 | 9.81426 | 13726 ft | 363 kts | 24° |
| 2026-04-28 19:40 | 41.21938 | 9.82877 | 14414 ft | 367 kts | 23° |
| 2026-04-28 19:40 | 41.24362 | 9.83965 | 15064 ft | 369 kts | 11° |
| 2026-04-28 19:40 | 41.26910 | 9.84369 | 15757 ft | 370 kts | 359° |
| 2026-04-28 19:40 | 41.29478 | 9.84070 | 16424 ft | 371 kts | 346° |
| 2026-04-28 19:41 | 41.31978 | 9.83202 | 17090 ft | 373 kts | 342° |
| 2026-04-28 19:41 | 41.34496 | 9.82275 | 17757 ft | 377 kts | 343° |
| 2026-04-28 19:41 | 41.37040 | 9.81347 | 18417 ft | 381 kts | 343° |
| 2026-04-28 19:41 | 41.39604 | 9.80415 | 19012 ft | 383 kts | 343° |
| 2026-04-28 19:42 | 41.42189 | 9.79476 | 19598 ft | 387 kts | 343° |
| 2026-04-28 19:42 | 41.44793 | 9.78531 | 20179 ft | 390 kts | 342° |
| 2026-04-28 19:42 | 41.47422 | 9.77577 | 20767 ft | 393 kts | 342° |
| 2026-04-28 19:42 | 41.50073 | 9.76609 | 21345 ft | 396 kts | 342° |
| 2026-04-28 19:43 | 41.52747 | 9.75633 | 21864 ft | 400 kts | 342° |
| 2026-04-28 19:43 | 41.55432 | 9.74653 | 22021 ft | 401 kts | 342° |
| 2026-04-28 19:43 | 41.58122 | 9.73670 | 22067 ft | 400 kts | 342° |
| 2026-04-28 19:43 | 41.60818 | 9.72683 | 22399 ft | 403 kts | 342° |
| 2026-04-28 19:44 | 41.63528 | 9.71694 | 23005 ft | 405 kts | 342° |
| 2026-04-28 19:44 | 41.66257 | 9.70696 | 23552 ft | 409 kts | 342° |
| 2026-04-28 19:44 | 41.69011 | 9.69685 | 24017 ft | 412 kts | 342° |
| 2026-04-28 19:44 | 41.71783 | 9.68665 | 24465 ft | 414 kts | 342° |
| 2026-04-28 19:45 | 41.74567 | 9.67640 | 24916 ft | 416 kts | 342° |
| 2026-04-28 19:45 | 41.77370 | 9.66610 | 25356 ft | 419 kts | 342° |
| 2026-04-28 19:45 | 41.80186 | 9.65573 | 25797 ft | 421 kts | 342° |
| 2026-04-28 19:45 | 41.83012 | 9.64532 | 26238 ft | 422 kts | 342° |
| 2026-04-28 19:46 | 41.85854 | 9.63484 | 26674 ft | 425 kts | 342° |
| 2026-04-28 19:46 | 41.88708 | 9.62430 | 27099 ft | 427 kts | 342° |
| 2026-04-28 19:46 | 41.91579 | 9.61370 | 27530 ft | 429 kts | 342° |
| 2026-04-28 19:46 | 41.94462 | 9.60306 | 27948 ft | 431 kts | 343° |
| 2026-04-28 19:47 | 41.97360 | 9.59237 | 28364 ft | 433 kts | 343° |
| 2026-04-28 19:47 | 42.00274 | 9.58161 | 28771 ft | 435 kts | 343° |
| 2026-04-28 19:47 | 42.03202 | 9.57075 | 29179 ft | 437 kts | 342° |
| 2026-04-28 19:47 | 42.06139 | 9.55983 | 29567 ft | 439 kts | 342° |
| 2026-04-28 19:48 | 42.09096 | 9.54882 | 29952 ft | 442 kts | 343° |
| 2026-04-28 19:48 | 42.12062 | 9.53777 | 30290 ft | 444 kts | 343° |
| 2026-04-28 19:48 | 42.15045 | 9.52664 | 30599 ft | 446 kts | 342° |
| 2026-04-28 19:48 | 42.18040 | 9.51545 | 30902 ft | 448 kts | 342° |
| 2026-04-28 19:49 | 42.21047 | 9.50421 | 31203 ft | 449 kts | 342° |
| 2026-04-28 19:49 | 42.24066 | 9.49294 | 31507 ft | 451 kts | 342° |
| 2026-04-28 19:49 | 42.27094 | 9.48166 | 31864 ft | 451 kts | 342° |
| 2026-04-28 19:49 | 42.30077 | 9.47055 | 32292 ft | 449 kts | 342° |
| 2026-04-28 19:50 | 42.36085 | 9.44809 | 33146 ft | 447 kts | 342° |
| 2026-04-28 19:50 | 42.39074 | 9.43689 | 33558 ft | 446 kts | 342° |
| 2026-04-28 19:50 | 42.42058 | 9.42568 | 33993 ft | 444 kts | 342° |
| 2026-04-28 19:51 | 42.45034 | 9.41447 | 34374 ft | 443 kts | 342° |
| 2026-04-28 19:51 | 42.48001 | 9.40329 | 34741 ft | 442 kts | 342° |
| 2026-04-28 19:51 | 42.50965 | 9.39211 | 35112 ft | 441 kts | 342° |
| 2026-04-28 19:51 | 42.53918 | 9.38097 | 35444 ft | 441 kts | 342° |
| 2026-04-28 19:52 | 42.56872 | 9.36982 | 35800 ft | 440 kts | 341° |
| 2026-04-28 19:52 | 42.59813 | 9.35868 | 36129 ft | 439 kts | 341° |
| 2026-04-28 19:52 | 42.62751 | 9.34754 | 36452 ft | 438 kts | 341° |
| 2026-04-28 19:52 | 42.65689 | 9.33642 | 36782 ft | 437 kts | 341° |
| 2026-04-28 19:53 | 42.68614 | 9.32535 | 37112 ft | 436 kts | 341° |
| 2026-04-28 19:53 | 42.71532 | 9.31429 | 37424 ft | 435 kts | 341° |
| 2026-04-28 19:53 | 42.74444 | 9.30326 | 37713 ft | 434 kts | 341° |
| 2026-04-28 19:53 | 42.77313 | 9.29240 | 37977 ft | 434 kts | 341° |
| 2026-04-28 19:54 | 42.80261 | 9.28120 | 38037 ft | 434 kts | 341° |
| 2026-04-28 19:54 | 42.86067 | 9.25904 | 38048 ft | 433 kts | 340° |
| 2026-04-28 19:55 | 42.91858 | 9.23691 | 38040 ft | 432 kts | 340° |
| 2026-04-28 19:55 | 42.97643 | 9.21473 | 38038 ft | 432 kts | 340° |
| 2026-04-28 19:56 | 43.03431 | 9.19257 | 38040 ft | 432 kts | 340° |
| 2026-04-28 19:56 | 43.09222 | 9.17033 | 38047 ft | 432 kts | 340° |
| 2026-04-28 19:57 | 43.15013 | 9.14812 | 38052 ft | 432 kts | 340° |
| 2026-04-28 19:57 | 43.20804 | 9.12577 | 38055 ft | 432 kts | 340° |
| 2026-04-28 19:58 | 43.26560 | 9.10353 | 38055 ft | 432 kts | 340° |
| 2026-04-28 19:58 | 43.32409 | 9.08080 | 38045 ft | 439 kts | 340° |
| 2026-04-28 19:59 | 43.38312 | 9.05785 | 38049 ft | 447 kts | 340° |
| 2026-04-28 19:59 | 43.44308 | 9.03464 | 38051 ft | 449 kts | 340° |
| 2026-04-28 20:00 | 43.50320 | 9.01126 | 38056 ft | 449 kts | 340° |
| 2026-04-28 20:00 | 43.56327 | 8.98782 | 38056 ft | 448 kts | 340° |
| 2026-04-28 20:01 | 43.62326 | 8.96437 | 38056 ft | 448 kts | 340° |
| 2026-04-28 20:01 | 43.68347 | 8.94133 | 38077 ft | 449 kts | 341° |
| 2026-04-28 20:02 | 43.74399 | 8.91940 | 38081 ft | 450 kts | 341° |
| 2026-04-28 20:02 | 43.80450 | 8.89753 | 38080 ft | 450 kts | 341° |
| 2026-04-28 20:03 | 43.86494 | 8.87527 | 38080 ft | 449 kts | 341° |
| 2026-04-28 20:03 | 43.92538 | 8.85290 | 38091 ft | 449 kts | 341° |
| 2026-04-28 20:04 | 43.98577 | 8.83059 | 38087 ft | 449 kts | 341° |
| 2026-04-28 20:04 | 44.04609 | 8.80824 | 38087 ft | 449 kts | 341° |
| 2026-04-28 20:05 | 44.10638 | 8.78584 | 38097 ft | 448 kts | 341° |
| 2026-04-28 20:05 | 44.16666 | 8.76339 | 38091 ft | 448 kts | 341° |
| 2026-04-28 20:06 | 44.22686 | 8.74092 | 38087 ft | 448 kts | 341° |
| 2026-04-28 20:06 | 44.28707 | 8.71847 | 38103 ft | 448 kts | 341° |
| 2026-04-28 20:07 | 44.34727 | 8.69587 | 38076 ft | 448 kts | 341° |
| 2026-04-28 20:07 | 44.40710 | 8.67338 | 38072 ft | 448 kts | 341° |
| 2026-04-28 20:08 | 44.46740 | 8.65076 | 38074 ft | 449 kts | 341° |
| 2026-04-28 20:08 | 44.52773 | 8.62806 | 38074 ft | 449 kts | 341° |
| 2026-04-28 20:09 | 44.58804 | 8.60527 | 38073 ft | 449 kts | 341° |
| 2026-04-28 20:09 | 44.64830 | 8.58246 | 38073 ft | 449 kts | 341° |
| 2026-04-28 20:10 | 44.70861 | 8.55952 | 38079 ft | 449 kts | 341° |
| 2026-04-28 20:10 | 44.76889 | 8.53660 | 38072 ft | 449 kts | 341° |
| 2026-04-28 20:11 | 44.82915 | 8.51357 | 38072 ft | 449 kts | 341° |
| 2026-04-28 20:11 | 44.88940 | 8.49056 | 38083 ft | 449 kts | 341° |
| 2026-04-28 20:12 | 44.94964 | 8.46756 | 38074 ft | 448 kts | 341° |
| 2026-04-28 20:12 | 45.00980 | 8.44452 | 38067 ft | 448 kts | 341° |
| 2026-04-28 20:13 | 45.06986 | 8.42143 | 38056 ft | 448 kts | 341° |
| 2026-04-28 20:13 | 45.12996 | 8.39821 | 38063 ft | 448 kts | 341° |
| 2026-04-28 20:14 | 45.19005 | 8.37498 | 38059 ft | 448 kts | 341° |
| 2026-04-28 20:14 | 45.25015 | 8.35179 | 38060 ft | 447 kts | 341° |
| 2026-04-28 20:15 | 45.31022 | 8.32848 | 38071 ft | 447 kts | 341° |
| 2026-04-28 20:15 | 45.37026 | 8.30513 | 38072 ft | 447 kts | 341° |
| 2026-04-28 20:16 | 45.43030 | 8.28180 | 38072 ft | 447 kts | 341° |
| 2026-04-28 20:16 | 45.49030 | 8.25832 | 38096 ft | 447 kts | 340° |
| 2026-04-28 20:17 | 45.55027 | 8.23488 | 38088 ft | 447 kts | 340° |
| 2026-04-28 20:17 | 45.60977 | 8.21157 | 38089 ft | 446 kts | 341° |
| 2026-04-28 20:18 | 45.66965 | 8.18815 | 38085 ft | 446 kts | 341° |
| 2026-04-28 20:18 | 45.71980 | 8.16842 | 38110 ft | 446 kts | 340° |